createdAt,value
2023-09-11T00:02:26.017Z,6198.986577181208
2023-09-11T00:06:04.030Z,6232.026845637584
2023-09-11T00:12:14.462Z,6195.765100671141
2023-09-11T00:15:33.948Z,6181.993288590604
2023-09-11T00:18:53.989Z,6246.543624161074
2023-09-11T00:22:13.976Z,6227.315436241611
2023-09-11T00:26:49.103Z,6499.791946308725
2023-09-11T00:30:08.956Z,6483.926174496644
2023-09-11T00:33:29.144Z,6515.194630872483
2023-09-11T00:36:49.126Z,6438.86577181208
2023-09-11T00:40:08.787Z,6700.993288590604
2023-09-11T00:47:53.131Z,6780.805369127517
2023-09-11T00:51:12.771Z,6827.013422818792
2023-09-11T00:54:31.525Z,6744.543624161074
2023-09-11T00:57:50.609Z,6908.436241610738
2023-09-11T01:01:10.177Z,6792.161073825503
2023-09-11T01:04:30.255Z,6868.208053691275
2023-09-11T01:10:12.875Z,6706.5302013422815
2023-09-11T01:13:32.507Z,6782.355704697987
2023-09-11T01:16:52.702Z,6690.463087248322
2023-09-11T01:20:13.010Z,6728.838926174497
2023-09-11T01:23:32.639Z,6682.248322147651
2023-09-11T01:26:52.516Z,6666.644295302013
2023-09-11T01:30:11.730Z,6790.3489932885905
2023-09-11T01:37:52.966Z,6762.140939597315
2023-09-11T01:43:35.208Z,6581.758389261745
2023-09-11T01:46:54.300Z,6508.872483221477
2023-09-11T01:50:14.161Z,6399.946308724832
2023-09-11T01:53:33.576Z,6268.3691275167785
2023-09-11T01:56:54.036Z,6087.724832214765
2023-09-11T02:00:14.252Z,6173.234899328859
2023-09-11T02:03:34.278Z,6037.953020134229
2023-09-11T02:06:54.219Z,6046.4496644295305
2023-09-11T02:11:50.617Z,5974.208053691275
2023-09-11T02:15:10.113Z,5989.228187919463
2023-09-11T02:18:29.951Z,5984.255033557047
2023-09-11T02:21:49.272Z,6039.583892617449
2023-09-11T02:25:08.949Z,5882.03355704698
2023-09-11T02:28:28.953Z,5912.315436241611
2023-09-11T02:31:51.799Z,5798.657718120805
2023-09-11T02:35:11.655Z,5638.5503355704695
2023-09-11T02:38:31.556Z,5607.422818791946
2023-09-11T02:47:57.975Z,5570.053691275168
2023-09-11T02:51:17.932Z,5551.228187919463
2023-09-11T02:56:31.601Z,5652.322147651007
2023-09-11T02:59:51.568Z,5540.89932885906
2023-09-11T03:03:11.577Z,5502.302013422819
2023-09-11T03:06:31.639Z,5424.885906040268
2023-09-11T03:09:51.526Z,5615.13422818792
2023-09-11T03:13:11.444Z,5535.825503355704
2023-09-11T03:16:31.153Z,5642.13422818792
2023-09-11T03:19:50.653Z,5472.463087248322
2023-09-11T03:26:55.991Z,5549.275167785235
2023-09-11T03:30:15.596Z,5650.892617449665
2023-09-11T03:36:15.511Z,5657.838926174497
2023-09-11T03:39:52.820Z,5581.026845637584
2023-09-11T03:43:12.087Z,5594.456375838926
2023-09-11T03:46:32.116Z,5711.838926174497
2023-09-11T03:53:49.761Z,5959.6912751677855
2023-09-11T03:57:09.207Z,6077.355704697987
2023-09-11T04:00:28.683Z,5868.96644295302
2023-09-11T04:03:48.084Z,5920.5503355704695
2023-09-11T04:07:07.654Z,5794.872483221477
2023-09-11T04:11:50.260Z,5687.557046979866
2023-09-11T04:16:35.289Z,5673.563758389262
2023-09-11T04:21:42.331Z,5542.812080536913
2023-09-11T04:25:02.168Z,5668.852348993289
2023-09-11T04:28:41.280Z,5436.885906040268
2023-09-11T04:32:01.341Z,5519.275167785235
2023-09-11T04:35:20.979Z,5539.7114093959735
2023-09-11T04:38:40.991Z,5335.4697986577185
2023-09-11T04:42:00.805Z,5485.731543624161
2023-09-11T04:45:20.753Z,5626.812080536913
2023-09-11T04:48:39.937Z,5652.221476510067
2023-09-11T04:51:59.726Z,5692.208053691275
2023-09-11T04:55:19.510Z,5451.161073825503
2023-09-11T04:59:26.441Z,5426.315436241611
2023-09-11T05:02:46.495Z,5435.939597315436
2023-09-11T05:06:06.286Z,5358.463087248322
2023-09-11T05:09:25.968Z,5463.604026845637
2023-09-11T05:12:45.327Z,5387.818791946309
2023-09-11T05:16:05.655Z,5443.812080536913
2023-09-11T05:19:25.215Z,5270.476510067114
2023-09-11T05:22:50.100Z,5321.818791946309
2023-09-11T05:26:09.969Z,5376.302013422819
2023-09-11T05:29:29.811Z,5303.677852348993
2023-09-11T05:32:49.515Z,5233.852348993289
2023-09-11T05:36:09.412Z,5293.791946308725
2023-09-11T05:39:29.003Z,5265.644295302013
2023-09-11T05:42:50.056Z,5242.3691275167785
2023-09-11T05:46:09.112Z,5306.194630872483
2023-09-11T05:49:28.956Z,5241.583892617449
2023-09-11T05:52:49.314Z,5191.6308724832215
2023-09-11T05:56:08.950Z,5155.067114093959
2023-09-11T05:59:28.038Z,5188.046979865771
2023-09-11T06:02:48.130Z,5230.268456375839
2023-09-11T06:11:43.646Z,4996.731543624161
2023-09-11T06:15:03.842Z,4929.10067114094
2023-09-11T06:18:23.489Z,4906.006711409396
2023-09-11T06:21:42.924Z,5043.845637583892
2023-09-11T06:29:44.182Z,4928.738255033557
2023-09-11T06:33:04.518Z,5025.825503355704
2023-09-11T06:36:23.815Z,5008.6107382550335
2023-09-11T06:39:43.602Z,4949.979865771812
2023-09-11T06:43:03.810Z,5050.046979865771
2023-09-11T06:46:23.906Z,4972.3691275167785
2023-09-11T06:49:43.768Z,4884.744966442953
2023-09-11T06:53:03.895Z,5010.322147651007
2023-09-11T06:56:23.740Z,4767.624161073825
2023-09-11T06:59:43.454Z,4773.926174496644
2023-09-11T07:04:01.266Z,4786.268456375839
2023-09-11T07:07:20.835Z,4750.812080536913
2023-09-11T07:10:41.942Z,4803.624161073825
2023-09-11T07:16:42.704Z,4780.4093959731545
2023-09-11T07:20:02.382Z,4706.879194630873
2023-09-11T07:23:22.472Z,4602.060402684564
2023-09-11T07:26:42.011Z,4675.912751677853
2023-09-11T07:30:01.060Z,4680.38255033557
2023-09-11T07:34:24.708Z,4761.885906040268
2023-09-11T07:37:45.149Z,4482.664429530201
2023-09-11T07:41:05.072Z,4376.194630872483
2023-09-11T07:44:24.880Z,4346.234899328859
2023-09-11T07:47:44.374Z,4033.3489932885905
2023-09-11T07:51:03.945Z,4060.3892617449665
2023-09-11T07:54:23.387Z,4226.959731543624
2023-09-11T07:57:42.872Z,4035.9664429530203
2023-09-11T08:01:02.656Z,4125.946308724832
2023-09-11T08:07:48.137Z,4121.295302013423
2023-09-11T08:11:08.032Z,3968.3758389261743
2023-09-11T08:14:28.029Z,4044.5637583892617
2023-09-11T08:17:48.313Z,4229.758389261745
2023-09-11T08:21:08.034Z,4146.503355704698
2023-09-11T08:24:27.669Z,4094.8590604026845
2023-09-11T08:27:47.644Z,4025.718120805369
2023-09-11T08:31:06.787Z,3950.3154362416108
2023-09-11T08:34:26.409Z,3833.9395973154365
2023-09-11T08:37:46.630Z,3894.1610738255035
2023-09-11T08:42:38.341Z,3807.0604026845635
2023-09-11T08:45:58.571Z,3729.442953020134
2023-09-11T08:49:17.384Z,3754.8926174496646
2023-09-11T08:52:36.670Z,3709.3489932885905
2023-09-11T08:55:56.941Z,3677.0738255033557
2023-09-11T08:59:17.600Z,3707.0335570469797
2023-09-11T09:03:59.209Z,3663.422818791946
2023-09-11T09:07:18.744Z,3669.986577181208
2023-09-11T09:10:38.201Z,3667.026845637584
2023-09-11T09:13:58.094Z,3486.0805369127515
2023-09-11T09:17:17.970Z,3517.691275167785
2023-09-11T09:22:54.955Z,3622.731543624161
2023-09-11T09:26:15.856Z,3578.5973154362414
2023-09-11T09:29:50.817Z,3467.536912751678
2023-09-11T09:33:10.696Z,3514.006711409396
2023-09-11T09:36:30.784Z,3611.013422818792
2023-09-11T09:39:50.773Z,3583.308724832215
2023-09-11T09:43:10.347Z,3371.2550335570468
2023-09-11T09:49:01.695Z,3460.2080536912754
2023-09-11T09:52:21.255Z,3420.5436241610737
2023-09-11T09:59:51.155Z,3416.0939597315437
2023-09-11T10:05:01.637Z,3287.3758389261743
2023-09-11T10:08:21.263Z,3166.026845637584
2023-09-11T10:11:40.746Z,3214.953020134228
2023-09-11T10:15:00.747Z,3284.8791946308725
2023-09-11T10:18:19.960Z,3141.422818791946
2023-09-11T10:21:39.974Z,3129.3422818791946
2023-09-11T10:26:26.791Z,3148.973154362416
2023-09-11T10:29:46.935Z,3199.06711409396
2023-09-11T10:33:07.029Z,3275.2953020134228
2023-09-11T10:38:12.124Z,3099.3422818791946
2023-09-11T10:42:23.322Z,3188.8993288590605
2023-09-11T10:45:57.743Z,3107.0939597315437
2023-09-11T10:49:17.098Z,3187.3489932885905
2023-09-11T10:53:12.527Z,3155.8791946308725
2023-09-11T10:56:31.796Z,3075.0
2023-09-11T10:59:51.280Z,2990.3154362416108
2023-09-11T11:03:10.895Z,2937.463087248322
2023-09-11T11:06:30.842Z,2946.7248322147652
2023-09-11T11:09:51.094Z,2949.5436241610737
2023-09-11T11:13:11.005Z,2857.510067114094
2023-09-11T11:16:30.718Z,2888.2550335570468
2023-09-11T11:21:30.717Z,2607.503355704698
2023-09-11T11:24:49.581Z,2591.3758389261743
2023-09-11T11:28:09.351Z,2559.422818791946
2023-09-11T11:32:49.734Z,2377.4093959731545
2023-09-11T11:36:09.962Z,2424.181208053691
2023-09-11T11:39:29.400Z,2392.5906040268455
2023-09-11T11:42:48.991Z,2431.55033557047
2023-09-11T11:46:08.451Z,2384.8791946308725
2023-09-11T11:49:28.041Z,2374.93288590604
2023-09-11T11:52:47.993Z,2234.3154362416108
2023-09-11T11:57:39.754Z,2293.530201342282
2023-09-11T12:00:59.535Z,2313.463087248322
2023-09-11T12:04:32.129Z,2350.771812080537
2023-09-11T12:07:58.451Z,2358.5838926174497
2023-09-11T12:11:21.218Z,2316.8859060402683
2023-09-11T12:14:40.617Z,2332.1879194630874
2023-09-11T12:18:00.266Z,2225.8590604026845
2023-09-11T12:22:06.729Z,2167.8322147651006
2023-09-11T12:25:27.971Z,2131.711409395973
2023-09-11T12:28:48.017Z,2220.3422818791946
2023-09-11T12:32:08.026Z,2141.0939597315437
2023-09-11T12:35:27.906Z,2151.442953020134
2023-09-11T12:38:46.876Z,2049.48322147651
2023-09-11T12:42:06.475Z,2121.1006711409395
2023-09-11T12:45:25.200Z,2046.9463087248323
2023-09-11T12:48:45.768Z,2155.510067114094
2023-09-11T12:52:05.591Z,2141.2147651006712
2023-09-11T12:55:25.261Z,2100.5838926174497
2023-09-11T12:58:44.590Z,2138.1543624161072
2023-09-11T13:02:04.085Z,2142.181208053691
2023-09-11T13:06:48.479Z,2154.9261744966443
2023-09-11T13:13:05.405Z,2190.1610738255035
2023-09-11T13:16:24.313Z,2235.463087248322
2023-09-11T13:19:43.852Z,2308.3691275167785
2023-09-11T13:23:03.324Z,2262.201342281879
2023-09-11T13:26:22.795Z,2237.536912751678
2023-09-11T13:29:42.535Z,2333.1342281879197
2023-09-11T13:33:02.644Z,2348.2147651006712
2023-09-11T13:36:21.437Z,2266.8322147651006
2023-09-11T13:39:40.911Z,2285.4362416107383
2023-09-11T13:44:29.664Z,2406.6845637583892
2023-09-11T13:47:49.434Z,2452.1275167785234
2023-09-11T13:51:09.278Z,2376.1006711409395
2023-09-11T13:54:28.291Z,2463.7449664429532
2023-09-11T14:00:33.153Z,2389.6308724832215
2023-09-11T14:03:53.128Z,2361.3624161073826
2023-09-11T14:07:12.407Z,2404.5704697986575
2023-09-11T14:12:21.302Z,2516.577181208054
2023-09-11T14:15:40.809Z,2452.1677852348994
2023-09-11T14:21:19.996Z,2515.288590604027
2023-09-11T14:24:39.141Z,2634.5234899328857
2023-09-11T14:27:59.213Z,2577.3221476510066
2023-09-11T14:31:18.706Z,2559.1409395973155
2023-09-11T14:34:38.896Z,2504.557046979866
2023-09-11T14:37:57.950Z,2553.3825503355706
2023-09-11T14:41:17.545Z,2657.8389261744965
2023-09-11T14:44:37.306Z,2604.241610738255
2023-09-11T14:47:57.480Z,2655.5838926174497
2023-09-11T14:51:16.900Z,2593.248322147651
2023-09-11T14:54:51.227Z,2744.738255033557
2023-09-11T14:58:13.544Z,2780.8389261744965
2023-09-11T15:01:33.413Z,2741.8993288590605
2023-09-11T15:04:53.078Z,2680.8523489932886
2023-09-11T15:08:13.290Z,2864.8590604026845
2023-09-11T15:11:32.394Z,2884.510067114094
2023-09-11T15:14:52.180Z,2843.0939597315437
2023-09-11T15:18:12.399Z,2827.248322147651
2023-09-11T15:21:32.319Z,2898.7248322147652
2023-09-11T15:24:52.419Z,3125.2147651006712
2023-09-11T15:28:12.098Z,3221.3959731543623
2023-09-11T15:34:26.769Z,3287.6174496644294
2023-09-11T15:37:46.491Z,3196.4295302013425
2023-09-11T15:41:05.824Z,3155.577181208054
2023-09-11T15:44:25.730Z,2752.912751677852
2023-09-11T15:47:45.497Z,2684.3959731543623
2023-09-11T15:51:05.379Z,2739.7852348993288
2023-09-11T15:54:25.004Z,2707.8926174496646
2023-09-11T15:58:32.551Z,2613.020134228188
2023-09-11T16:01:52.133Z,2715.503355704698
2023-09-11T16:07:03.117Z,2696.9395973154365
2023-09-11T16:10:22.692Z,2652.6241610738257
2023-09-11T16:13:41.473Z,2715.8657718120803
2023-09-11T16:17:01.532Z,2665.1879194630874
2023-09-11T16:20:20.909Z,2734.3892617449665
2023-09-11T16:23:40.284Z,2705.8791946308725
2023-09-11T16:26:59.178Z,2908.469798657718
2023-09-11T16:30:18.744Z,2916.9261744966443
2023-09-11T16:43:03.055Z,2941.7919463087246
2023-09-11T16:46:22.825Z,2810.1946308724832
2023-09-11T16:49:42.184Z,2852.8993288590605
2023-09-11T16:53:02.278Z,2810.758389261745
2023-09-11T16:56:21.459Z,2959.8926174496646
2023-09-11T16:59:41.336Z,2953.026845637584
2023-09-11T17:03:01.697Z,2841.5637583892617
2023-09-11T17:06:21.371Z,2859.1208053691275
2023-09-11T17:09:41.292Z,2955.8859060402683
2023-09-11T17:13:01.615Z,3008.557046979866
2023-09-11T17:16:21.107Z,2978.0738255033557
2023-09-11T17:19:40.779Z,2937.4026845637586
2023-09-11T17:23:00.669Z,2900.4765100671143
2023-09-11T17:26:28.805Z,2817.281879194631
2023-09-11T17:29:48.964Z,2875.510067114094
2023-09-11T17:33:10.604Z,2790.040268456376
2023-09-11T17:36:32.306Z,2766.7046979865772
2023-09-11T17:39:51.924Z,2815.8724832214766
2023-09-11T17:43:11.200Z,2904.7852348993288
2023-09-11T17:46:30.987Z,2759.013422818792
2023-09-11T17:49:51.050Z,2886.9664429530203
2023-09-11T17:53:10.328Z,2778.8053691275168
2023-09-11T17:56:29.510Z,2709.261744966443
2023-09-11T17:59:48.720Z,2840.4765100671143
2023-09-11T18:03:08.648Z,2867.9194630872485
2023-09-11T18:06:28.387Z,2943.3422818791946
2023-09-11T18:12:04.217Z,2957.0738255033557
2023-09-11T18:15:24.223Z,2983.691275167785
2023-09-11T18:21:20.723Z,3106.6711409395975
2023-09-11T18:24:40.230Z,3061.691275167785
2023-09-11T18:28:00.454Z,3178.912751677852
2023-09-11T18:33:54.260Z,3151.6510067114095
2023-09-11T18:37:13.782Z,3188.4765100671143
2023-09-11T18:40:33.364Z,3085.510067114094
2023-09-11T18:43:53.365Z,3155.9194630872485
2023-09-11T18:47:13.124Z,3277.953020134228
2023-09-11T18:50:32.189Z,3344.9395973154365
2023-09-11T18:53:52.296Z,3476.9194630872485
2023-09-11T18:57:11.073Z,3416.3355704697988
2023-09-11T19:00:30.861Z,3453.503355704698
2023-09-11T19:06:55.226Z,3535.771812080537
2023-09-11T19:10:14.391Z,3590.8389261744965
2023-09-11T19:13:34.085Z,3628.6107382550335
2023-09-11T19:16:59.381Z,3593.1140939597317
2023-09-11T19:20:18.858Z,3735.0
2023-09-11T19:24:00.913Z,3972.6442953020132
2023-09-11T19:29:00.072Z,4258.228187919463
2023-09-11T19:38:46.040Z,4420.4295302013425
2023-09-11T19:51:59.296Z,4533.583892617449
2023-09-11T19:57:08.773Z,4677.402684563758
2023-09-11T20:03:07.310Z,4618.4093959731545
2023-09-11T20:06:27.591Z,4192.731543624161
2023-09-11T20:09:47.694Z,4109.496644295302
2023-09-11T20:13:07.219Z,3923.8993288590605
2023-09-11T20:16:26.016Z,3607.1476510067114
2023-09-11T20:19:46.014Z,3423.48322147651
2023-09-11T20:23:06.140Z,3321.8053691275168
2023-09-11T20:26:25.945Z,3214.93288590604
2023-09-11T20:31:46.210Z,3096.8255033557048
2023-09-11T20:35:47.220Z,3107.8993288590605
2023-09-11T20:39:07.503Z,3279.3020134228186
2023-09-11T20:42:27.695Z,3477.503355704698
2023-09-11T20:45:47.323Z,3603.6644295302012
2023-09-11T20:49:07.227Z,3314.3959731543623
2023-09-11T20:52:26.605Z,3095.9395973154365
2023-09-11T20:55:45.980Z,3088.8926174496646
2023-09-11T20:59:05.852Z,3128.758389261745
2023-09-11T21:03:45.338Z,3131.496644295302
2023-09-11T21:07:57.212Z,3198.201342281879
2023-09-11T21:11:16.597Z,3295.8724832214766
2023-09-11T21:14:36.274Z,3364.046979865772
2023-09-11T21:17:56.527Z,3422.979865771812
2023-09-11T21:21:16.409Z,3451.4093959731545
2023-09-11T21:24:44.320Z,3348.5637583892617
2023-09-11T21:28:03.285Z,3402.1208053691275
2023-09-11T21:31:23.174Z,3299.6174496644294
2023-09-11T21:34:43.155Z,3210.503355704698
2023-09-11T21:38:03.235Z,3279.1610738255035
2023-09-11T21:45:12.639Z,3484.06711409396
2023-09-11T21:53:05.500Z,3600.8456375838928
2023-09-11T21:56:25.074Z,3495.7651006711408
2023-09-11T21:59:45.179Z,3424.691275167785
2023-09-11T22:03:05.499Z,3338.0335570469797
2023-09-11T22:06:46.026Z,3494.778523489933
2023-09-11T22:10:05.895Z,3460.006711409396
2023-09-11T22:13:25.165Z,3585.040268456376
2023-09-11T22:16:44.600Z,3552.0805369127515
2023-09-11T22:20:05.755Z,3814.7919463087246
2023-09-11T22:23:40.961Z,3873.1610738255035
2023-09-11T22:30:19.174Z,4091.496644295302
2023-09-11T22:36:23.597Z,4146.664429530201
2023-09-11T22:39:43.162Z,4192.067114093959
2023-09-11T22:43:03.454Z,4296.624161073825
2023-09-11T22:46:23.478Z,4630.852348993289
2023-09-11T22:49:43.100Z,4700.395973154363
2023-09-11T22:53:03.179Z,4611.744966442953
2023-09-11T22:56:23.072Z,4691.879194630873
2023-09-11T22:59:42.558Z,4773.362416107382
2023-09-11T23:03:02.126Z,4651.771812080537
2023-09-11T23:06:22.247Z,4713.604026845637
2023-09-11T23:09:41.683Z,4939.5302013422815
2023-09-11T23:13:01.381Z,4912.4295302013425
2023-09-11T23:16:20.871Z,5017.5704697986575
2023-09-11T23:19:40.621Z,5164.187919463087
2023-09-11T23:23:00.719Z,5626.5503355704695
2023-09-11T23:26:19.582Z,5904.885906040268
2023-09-11T23:29:39.054Z,5957.637583892618
2023-09-11T23:32:59.456Z,5918.959731543624
2023-09-11T23:38:33.059Z,5901.0
2023-09-11T23:41:53.664Z,5934.744966442953
2023-09-11T23:45:13.078Z,5806.973154362416
2023-09-11T23:48:32.961Z,5933.939597315436
2023-09-11T23:51:53.010Z,6002.456375838926
2023-09-11T23:55:12.548Z,5882.234899328859
2023-09-11T23:58:32.381Z,5886.060402684564
